Main page
METAR-TAF:

METAR-TAF

Airports :

Changchun Longjia International Airport

Changchun, China

latitude: 43-54N, longitude: 125-13E, elevation: 238 m

Current weather observation

The report was made 42 minutes ago, at 07:00 UTC
Wind 6 kt from the East, varying between East/Northeast and Southeast
Temperature 28°C
Humidity 70%
Pressure 999 hPa
Visibility 10 km or more
Broken clouds at a height of 3000 ft

METAR: ZYCC 300700Z 10003MPS 070V130 9999 BKN030 28/22 Q0999 NOSIG

Time: 15:42 (07:42 UTC)

Forecast

The report was made 4 hours and 31 minutes ago, at 03:11 UTC
Forecast valid from 30 at 06 UTC to 31 at 06 UTC
Wind 8 kt from the East
Visibility: 4000 m
Broken clouds at a height of 3000 ft
light rain showers
Temporary
from 30 at 08 UTC to 30 at 14 UTC
Visibility: 2000 m
Few clouds at a height of 2000 ft, Cumulonimbus.
Broken clouds at a height of 3000 ft
thunderstorm, light rain

TAF: ZYCC 300311Z 3006/3106 09004MPS 4000 -SHRA BKN030 TX30/3106Z TN23/3021Z TEMPO 3008/3014 2000 -TSRA FEW020CB BKN030

Weather observations and forecasts of more than 4000 airports (METAR and TAF reports).

The available stations are represented by yellow and red dots on the map.

Hover mouse over dot to see the name of the station.

Then click to see weather observations and forecasts.

To change the map : click on the green buttons with a black cross to zoom in, on the green button with a dash to zoom out, or on the green arrows for adjacent maps.


METAR-TAF: